Time;durP1;ratioP1;P1;durP2;ratioP2;P2;SDS_P1;SDS_P2;PMS_P1;PMS_P2;Temp;Humidity;BMP_temperature;BMP_pressure;BME280_temperature;BME280_humidity;BME280_pressure;Samples;Min_cycle;Max_cycle;Signal;HPM_P1;HPM_P2
2023/08/19 00:02:26;;;;;;;0.00;0.00;;;;;;;17.43;100.00;99523.53;4952932;28;20031;-82
2023/08/19 00:04:51;;;;;;;0.00;0.00;;;;;;;17.48;100.00;99541.88;4929975;28;20431;-79
2023/08/19 00:07:17;;;;;;;0.00;0.00;;;;;;;17.50;100.00;99545.94;4974116;28;20117;-80
2023/08/19 00:09:48;;;;;;;0.00;0.00;;;;;;;17.38;100.00;99537.56;4963699;28;20121;-82
2023/08/19 00:12:25;;;;;;;;;;;;;;;;;;;;;
2023/08/19 00:15:01;;;;;;;;;;;;;;;;;;;;;
2023/08/19 00:17:27;;;;;;;0.00;0.00;;;;;;;17.40;100.00;99535.25;4981417;28;20126;-82
2023/08/19 00:20:09;;;;;;;0.00;0.00;;;;;;;17.47;100.00;99552.13;4964710;28;20493;-80
2023/08/19 00:22:36;;;;;;;0.00;0.00;;;;;;;17.44;100.00;99547.28;4958225;28;20031;-78
2023/08/19 00:25:04;;;;;;;0.00;0.00;;;;;;;17.59;100.00;99579.84;4935091;29;20040;-78
2023/08/19 00:27:30;;;;;;;0.00;0.00;;;;;;;17.62;100.00;99578.38;4950647;28;20011;-79
2023/08/19 00:29:55;;;;;;;0.00;0.00;;;;;;;17.63;100.00;99568.94;4950145;28;20073;-80
2023/08/19 00:32:21;;;;;;;0.00;0.00;;;;;;;17.70;100.00;99560.16;4955862;28;20038;-78
2023/08/19 00:34:47;;;;;;;0.00;0.00;;;;;;;17.70;100.00;99571.19;4933393;28;20031;-79
2023/08/19 00:37:13;;;;;;;0.00;0.00;;;;;;;17.83;100.00;99589.50;4956305;28;20122;-77
2023/08/19 00:39:38;;;;;;;0.00;0.00;;;;;;;17.81;100.00;99577.94;4944628;28;20031;-78
2023/08/19 00:42:06;;;;;;;0.00;0.00;;;;;;;17.84;100.00;99582.00;4956264;28;20086;-81
2023/08/19 00:44:35;;;;;;;0.00;0.00;;;;;;;17.92;100.00;99595.81;4965704;28;20140;-77
2023/08/19 00:47:13;;;;;;;0.00;0.00;;;;;;;17.87;100.00;99579.38;4977778;28;20034;-78
2023/08/19 00:49:38;;;;;;;0.00;0.00;;;;;;;17.84;100.00;99566.19;4962056;28;20023;-78
2023/08/19 00:52:06;;;;;;;0.00;0.00;;;;;;;17.92;100.00;99584.75;4958319;28;20527;-78
2023/08/19 00:54:32;;;;;;;0.00;0.00;;;;;;;17.96;100.00;99585.69;4955835;28;20386;-79
2023/08/19 00:56:58;;;;;;;0.00;0.00;;;;;;;17.93;100.00;99597.44;4945155;28;20042;-78
2023/08/19 00:59:23;;;;;;;0.00;0.00;;;;;;;17.93;100.00;99594.66;4937774;28;20467;-77
2023/08/19 01:01:48;;;;;;;0.00;0.00;;;;;;;17.91;100.00;99591.41;4930511;29;20063;-80
2023/08/19 01:04:16;;;;;;;0.00;0.00;;;;;;;17.79;100.00;99564.44;4937797;28;20381;-77
2023/08/19 01:06:51;;;;;;;0.00;0.00;;;;;;;17.76;100.00;99569.84;4945067;28;20034;-77
2023/08/19 01:09:43;;;;;;;0.00;0.00;;;;;;;17.80;100.00;99599.25;4970067;28;20030;-78
2023/08/19 01:12:21;;;;;;;0.00;0.00;;;;;;;17.74;100.00;99588.72;4972816;28;20030;-77
2023/08/19 01:15:03;;;;;;;0.00;0.00;;;;;;;17.51;100.00;99575.19;4960883;28;20482;-78
2023/08/19 01:17:31;;;;;;;0.00;0.00;;;;;;;17.48;100.00;99583.34;4973046;28;20121;-80
2023/08/19 01:19:58;;;;;;;0.00;0.00;;;;;;;17.44;100.00;99591.50;4955103;28;20043;-78
2023/08/19 01:22:57;;;;;;;0.00;0.00;;;;;;;17.41;100.00;99586.63;4967026;28;20035;-78
2023/08/19 01:25:23;;;;;;;0.00;0.00;;;;;;;17.31;100.00;99587.81;4969389;28;20034;-77
2023/08/19 01:27:48;;;;;;;0.00;0.00;;;;;;;17.18;100.00;99586.88;4974301;28;20022;-77
2023/08/19 01:30:14;;;;;;;0.00;0.00;;;;;;;17.22;100.00;99600.84;4953608;28;20055;-77
2023/08/19 01:32:44;;;;;;;0.00;0.00;;;;;;;17.17;100.00;99585.28;4945776;28;20031;-79
2023/08/19 01:35:14;;;;;;;0.00;0.00;;;;;;;17.07;100.00;99593.94;4938438;28;20082;-78
2023/08/19 01:37:53;;;;;;;0.00;0.00;;;;;;;16.96;100.00;99592.66;4966009;28;20025;-78
2023/08/19 01:40:21;;;;;;;0.00;0.00;;;;;;;16.85;100.00;99592.97;4953362;28;20043;-77
2023/08/19 01:42:47;;;;;;;0.00;0.00;;;;;;;16.75;100.00;99576.75;4971325;28;20107;-77
2023/08/19 01:45:14;;;;;;;0.00;0.00;;;;;;;16.63;100.00;99584.88;4956390;28;20696;-77
2023/08/19 01:47:40;;;;;;;0.00;0.00;;;;;;;16.58;100.00;99583.13;4941182;28;20035;-77
2023/08/19 01:50:06;;;;;;;0.00;0.00;;;;;;;16.78;100.00;99605.63;4957227;28;20031;-78
2023/08/19 01:52:32;;;;;;;0.00;0.00;;;;;;;16.90;100.00;99623.19;4951917;28;20035;-77
2023/08/19 01:54:58;;;;;;;0.00;0.00;;;;;;;16.92;100.00;99620.94;4954797;28;20031;-77
2023/08/19 01:57:26;;;;;;;0.00;0.00;;;;;;;17.03;100.00;99637.16;4966080;28;20027;-78
2023/08/19 01:59:52;;;;;;;0.00;0.00;;;;;;;17.02;100.00;99624.47;4954733;28;20023;-78
2023/08/19 02:02:18;;;;;;;0.00;0.00;;;;;;;17.09;100.00;99630.31;4943522;28;20628;-80
2023/08/19 02:04:43;;;;;;;0.00;0.00;;;;;;;17.02;100.00;99636.31;4941118;28;20117;-77
2023/08/19 02:07:09;;;;;;;0.00;0.00;;;;;;;16.99;100.00;99630.66;4941171;28;20105;-77
2023/08/19 02:09:34;;;;;;;0.00;0.00;;;;;;;16.98;100.00;99632.63;4954337;28;20023;-77
2023/08/19 02:12:00;;;;;;;0.00;0.00;;;;;;;16.94;100.00;99617.84;4931862;28;20097;-78
2023/08/19 02:14:25;;;;;;;0.00;0.00;;;;;;;16.80;100.00;99617.19;4941571;28;20073;-78
2023/08/19 02:16:53;;;;;;;0.00;0.00;;;;;;;16.65;100.00;99621.28;4941815;28;20047;-77
2023/08/19 02:19:19;;;;;;;0.00;0.00;;;;;;;16.70;100.00;99629.38;4945868;28;20122;-77
2023/08/19 02:21:45;;;;;;;0.00;0.00;;;;;;;16.71;100.00;99653.09;4940613;28;20018;-77
2023/08/19 02:24:10;;;;;;;0.00;0.00;;;;;;;16.67;100.00;99613.47;4935815;28;20043;-77
2023/08/19 02:26:36;;;;;;;0.00;0.00;;;;;;;16.74;100.00;99619.31;4950622;28;20027;-77
2023/08/19 02:29:03;;;;;;;0.00;0.00;;;;;;;16.64;100.00;99608.59;4922597;28;20117;-78
2023/08/19 02:31:29;;;;;;;0.00;0.00;;;;;;;16.73;100.00;99620.44;4936201;28;20045;-77
2023/08/19 02:33:56;;;;;;;0.00;0.00;;;;;;;16.67;100.00;99616.22;4920975;28;20035;-78
2023/08/19 02:36:22;;;;;;;0.00;0.00;;;;;;;16.62;100.00;99622.72;4946112;28;20441;-78
2023/08/19 02:38:47;;;;;;;0.00;0.00;;;;;;;16.61;100.00;99628.56;4935846;28;20063;-79
2023/08/19 02:41:15;;;;;;;0.00;0.00;;;;;;;16.55;100.00;99619.66;4971619;28;20029;-76
2023/08/19 02:43:40;;;;;;;0.00;0.00;;;;;;;16.66;100.00;99625.63;4939800;28;20038;-77
2023/08/19 02:46:06;;;;;;;0.00;0.00;;;;;;;16.63;100.00;99629.88;4956300;28;20023;-76
2023/08/19 02:48:31;;;;;;;0.00;0.00;;;;;;;16.70;100.00;99629.38;4948300;28;20042;-77
2023/08/19 02:50:57;;;;;;;0.00;0.00;;;;;;;16.67;100.00;99646.59;4927283;28;20036;-77
2023/08/19 02:53:22;;;;;;;0.00;0.00;;;;;;;16.62;100.00;99655.84;4960641;28;20401;-76
2023/08/19 02:55:52;;;;;;;0.00;0.00;;;;;;;16.63;100.00;99629.03;4934194;28;20046;-77
2023/08/19 02:58:18;;;;;;;0.00;0.00;;;;;;;16.66;100.00;99643.03;4968513;28;20027;-75
2023/08/19 03:00:48;;;;;;;0.00;0.00;;;;;;;16.65;100.00;99637.84;4955757;28;20484;-77
2023/08/19 03:03:14;;;;;;;0.00;0.00;;;;;;;16.62;100.00;99639.28;4955654;28;20505;-77
2023/08/19 03:05:40;;;;;;;0.00;0.00;;;;;;;16.62;100.00;99638.44;4938322;28;20127;-77
2023/08/19 03:08:07;;;;;;;0.00;0.00;;;;;;;16.56;100.00;99641.41;4954645;28;20031;-77
2023/08/19 03:10:33;;;;;;;0.00;0.00;;;;;;;16.57;100.00;99654.06;4939509;28;20027;-76
2023/08/19 03:12:59;;;;;;;0.00;0.00;;;;;;;16.55;100.00;99656.31;4952759;28;20228;-76
2023/08/19 03:15:25;;;;;;;0.00;0.00;;;;;;;16.56;100.00;99655.19;4936051;28;20038;-75
2023/08/19 03:17:51;;;;;;;0.00;0.00;;;;;;;16.52;100.00;99645.94;4934685;28;20054;-75
2023/08/19 03:20:16;;;;;;;0.00;0.00;;;;;;;16.50;100.00;99653.75;4938105;28;20169;-76
2023/08/19 03:22:42;;;;;;;0.00;0.00;;;;;;;16.53;100.00;99658.59;4931436;28;20038;-77
2023/08/19 03:25:08;;;;;;;0.00;0.00;;;;;;;16.42;100.00;99646.25;4940964;28;20047;-77
2023/08/19 03:27:34;;;;;;;0.00;0.00;;;;;;;16.48;100.00;99658.75;4957517;28;20114;-76
2023/08/19 03:29:59;;;;;;;0.00;0.00;;;;;;;16.47;100.00;99651.63;4938073;28;20121;-76
2023/08/19 03:32:24;;;;;;;0.00;0.00;;;;;;;16.43;100.00;99658.94;4921948;28;20088;-76
2023/08/19 03:34:50;;;;;;;0.00;0.00;;;;;;;16.41;100.00;99666.69;4928624;28;20035;-77
2023/08/19 03:37:15;;;;;;;0.00;0.00;;;;;;;16.42;100.00;99662.81;4936460;28;20027;-76
2023/08/19 03:39:41;;;;;;;0.00;0.00;;;;;;;16.47;100.00;99673.72;4951851;28;20022;-76
2023/08/19 03:42:06;;;;;;;0.00;0.00;;;;;;;16.38;100.00;99668.19;4957174;28;20533;-77
2023/08/19 03:44:31;;;;;;;0.00;0.00;;;;;;;16.35;100.00;99676.28;4937767;28;20027;-76
2023/08/19 03:46:57;;;;;;;0.00;0.00;;;;;;;16.32;100.00;99691.53;4922389;28;20027;-76
2023/08/19 03:49:22;;;;;;;0.00;0.00;;;;;;;16.28;100.00;99667.66;4965539;28;20156;-76
2023/08/19 03:51:48;;;;;;;0.00;0.00;;;;;;;16.31;100.00;99672.53;4969419;28;20081;-77
2023/08/19 03:54:13;;;;;;;0.00;0.00;;;;;;;16.38;100.00;99672.88;4938190;28;20034;-76
2023/08/19 03:56:38;;;;;;;0.00;0.00;;;;;;;16.39;100.00;99680.81;4917341;28;20777;-77
2023/08/19 03:59:04;;;;;;;0.00;0.00;;;;;;;16.37;100.00;99683.09;4935553;28;20034;-78
2023/08/19 04:01:29;;;;;;;0.00;0.00;;;;;;;16.36;100.00;99691.72;4935336;28;20035;-77
2023/08/19 04:03:55;;;;;;;0.00;0.00;;;;;;;16.38;100.00;99683.91;4919243;28;20037;-76
2023/08/19 04:06:20;;;;;;;0.00;0.00;;;;;;;16.41;100.00;99680.50;4922918;28;20504;-76
2023/08/19 04:08:46;;;;;;;0.00;0.00;;;;;;;16.43;100.00;99680.19;4955673;28;20027;-76
2023/08/19 04:11:11;;;;;;;0.00;0.00;;;;;;;16.44;100.00;99676.28;4937271;28;20435;-75
2023/08/19 04:13:36;;;;;;;0.00;0.00;;;;;;;16.53;100.00;99685.41;4935662;28;20023;-77
2023/08/19 04:16:06;;;;;;;0.00;0.00;;;;;;;16.57;100.00;99686.34;4936462;28;20121;-74
2023/08/19 04:18:33;;;;;;;0.00;0.00;;;;;;;16.58;100.00;99683.28;4953426;28;20039;-75
2023/08/19 04:21:05;;;;;;;0.00;0.00;;;;;;;16.62;100.00;99693.66;4970205;28;20676;-75
2023/08/19 04:23:32;;;;;;;0.00;0.00;;;;;;;16.63;100.00;99687.00;4943968;28;20381;-75
2023/08/19 04:25:57;;;;;;;0.00;0.00;;;;;;;16.65;100.00;99698.56;4970763;28;20114;-75
2023/08/19 04:28:22;;;;;;;0.00;0.00;;;;;;;16.67;100.00;99704.56;4939336;28;20413;-76
2023/08/19 04:30:48;;;;;;;0.00;0.00;;;;;;;16.67;100.00;99702.59;4915957;28;20593;-75
2023/08/19 04:33:14;;;;;;;0.00;0.00;;;;;;;16.72;100.00;99712.69;4951052;28;20404;-76
2023/08/19 04:35:40;;;;;;;0.00;0.00;;;;;;;16.60;100.00;99690.41;4950998;28;20027;-75
2023/08/19 04:38:05;;;;;;;0.00;0.00;;;;;;;16.73;100.00;99712.34;4953873;28;20042;-75
2023/08/19 04:40:31;;;;;;;0.00;0.00;;;;;;;16.65;100.00;99701.31;4933555;28;20042;-76
2023/08/19 04:42:57;;;;;;;0.00;0.00;;;;;;;16.71;100.00;99713.81;4919078;29;20031;-76
2023/08/19 04:45:23;;;;;;;0.00;0.00;;;;;;;16.71;100.00;99719.34;4946693;28;20042;-76
2023/08/19 04:47:49;;;;;;;0.00;0.00;;;;;;;16.71;100.00;99720.13;4957792;28;20023;-76
2023/08/19 04:50:27;;;;;;;;;;;;;;;;;;;;;
2023/08/19 04:52:53;;;;;;;0.00;0.00;;;;;;;16.58;100.00;99713.63;4946171;28;20015;-79
2023/08/19 04:55:18;;;;;;;0.00;0.00;;;;;;;16.64;100.00;99733.59;4953565;28;20518;-75
2023/08/19 04:57:44;;;;;;;0.00;0.00;;;;;;;16.62;100.00;99743.34;4957370;28;20027;-75
2023/08/19 05:00:12;;;;;;;0.00;0.00;;;;;;;16.54;100.00;99732.00;4936087;28;20451;-76
2023/08/19 05:02:38;;;;;;;0.00;0.00;;;;;;;16.52;100.00;99742.53;4941885;28;20086;-77
2023/08/19 05:05:12;;;;;;;0.00;0.00;;;;;;;16.54;100.00;99737.50;4955180;28;20033;-77
2023/08/19 05:07:37;;;;;;;0.00;0.00;;;;;;;16.55;100.00;99730.84;4963025;28;20074;-76
2023/08/19 05:10:03;;;;;;;0.00;0.00;;;;;;;16.65;100.00;99746.28;4941760;28;20031;-77
2023/08/19 05:12:29;;;;;;;0.00;0.00;;;;;;;16.67;100.00;99751.47;4940290;29;20035;-76
2023/08/19 05:14:55;;;;;;;0.00;0.00;;;;;;;16.66;100.00;99744.31;4951596;29;20050;-76
2023/08/19 05:17:20;;;;;;;0.00;0.00;;;;;;;16.68;100.00;99766.91;4933458;28;20055;-76
2023/08/19 05:19:46;;;;;;;0.00;0.00;;;;;;;16.67;100.00;99768.03;4937638;28;20126;-76
2023/08/19 05:22:12;;;;;;;0.00;0.00;;;;;;;16.62;100.00;99766.25;4953892;28;20035;-78
2023/08/19 05:24:37;;;;;;;0.00;0.00;;;;;;;16.64;100.00;99775.00;4971390;28;20019;-77
2023/08/19 05:27:02;;;;;;;0.00;0.00;;;;;;;16.61;100.00;99769.34;4934946;29;20402;-77
2023/08/19 05:29:28;;;;;;;0.00;0.00;;;;;;;16.57;100.00;99778.25;4951308;28;20118;-77
2023/08/19 05:31:54;;;;;;;0.00;0.00;;;;;;;16.55;100.00;99776.94;4955292;28;20038;-76
2023/08/19 05:34:20;;;;;;;0.00;0.00;;;;;;;16.52;100.00;99792.19;4940933;28;20062;-76
2023/08/19 05:36:45;;;;;;;0.00;0.00;;;;;;;16.39;100.00;99782.13;4942192;28;20035;-78
2023/08/19 05:39:11;;;;;;;0.00;0.00;;;;;;;16.40;100.00;99786.50;4955435;28;20034;-74
2023/08/19 05:41:36;;;;;;;0.00;0.00;;;;;;;16.39;100.00;99799.47;4955557;28;20035;-75
2023/08/19 05:44:02;;;;;;;0.00;0.00;;;;;;;16.36;100.00;99802.88;4938524;28;20385;-75
2023/08/19 05:46:28;;;;;;;0.00;0.00;;;;;;;16.42;100.00;99803.53;4927874;28;20019;-76
2023/08/19 05:48:54;;;;;;;0.00;0.00;;;;;;;16.41;100.00;99799.16;4956654;28;20489;-75
2023/08/19 05:51:19;;;;;;;0.00;0.00;;;;;;;16.46;100.00;99810.06;4955842;28;20435;-76
2023/08/19 05:53:45;;;;;;;0.00;0.00;;;;;;;16.44;100.00;99820.63;4937660;28;20569;-76
2023/08/19 05:56:10;;;;;;;0.00;0.00;;;;;;;16.43;100.00;99820.91;4946268;28;20126;-76
2023/08/19 05:58:38;;;;;;;0.00;0.00;;;;;;;16.46;100.00;99818.31;4950651;28;20071;-76
2023/08/19 06:01:06;;;;;;;0.00;0.00;;;;;;;16.42;100.00;99833.91;4948315;28;20031;-75
2023/08/19 06:03:32;;;;;;;0.00;0.00;;;;;;;16.44;100.00;99830.81;4956042;28;20035;-76
2023/08/19 06:06:03;;;;;;;0.00;0.00;;;;;;;16.47;100.00;99822.72;4939853;28;20103;-77
2023/08/19 06:08:28;;;;;;;0.00;0.00;;;;;;;16.50;100.00;99830.34;4965704;28;20197;-76
2023/08/19 06:11:06;;;;;;;0.00;0.00;;;;;;;16.55;100.00;99838.47;4928297;28;20039;-75
2023/08/19 06:13:35;;;;;;;0.00;0.00;;;;;;;16.56;100.00;99831.84;4956397;28;20046;-77
2023/08/19 06:16:10;;;;;;;0.00;0.00;;;;;;;16.66;100.00;99850.06;4943204;28;20031;-76
2023/08/19 06:18:36;;;;;;;0.00;0.00;;;;;;;16.66;100.00;99833.50;4973209;28;20090;-77
2023/08/19 06:21:03;;;;;;;0.00;0.00;;;;;;;16.77;100.00;99844.22;4951547;28;20050;-75
2023/08/19 06:23:28;;;;;;;0.00;0.00;;;;;;;16.91;100.00;99842.97;4953196;28;20024;-76
2023/08/19 06:25:54;;;;;;;0.00;0.00;;;;;;;16.96;100.00;99857.78;4965706;28;20027;-75
2023/08/19 06:28:21;;;;;;;0.00;0.00;;;;;;;17.05;100.00;99866.88;4920950;29;20078;-75
2023/08/19 06:30:47;;;;;;;0.00;0.00;;;;;;;17.13;100.00;99868.84;4951590;28;20101;-75
2023/08/19 06:33:14;;;;;;;0.00;0.00;;;;;;;17.16;100.00;99843.31;4940273;28;20035;-75
2023/08/19 06:35:40;;;;;;;0.00;0.00;;;;;;;17.30;100.00;99867.22;4937059;28;20111;-74
2023/08/19 06:38:13;;;;;;;0.00;0.00;;;;;;;17.37;100.00;99876.63;4952437;28;20042;-75
2023/08/19 06:40:49;;;;;;;0.00;0.00;;;;;;;17.39;100.00;99879.06;4951259;28;20034;-76
2023/08/19 06:43:18;;;;;;;0.00;0.00;;;;;;;17.40;100.00;99877.94;4949788;28;20058;-76
2023/08/19 06:45:44;;;;;;;0.00;0.00;;;;;;;17.49;100.00;99887.03;4950446;28;20069;-75
2023/08/19 06:48:11;;;;;;;0.00;0.00;;;;;;;17.49;99.70;99881.50;4980129;28;20088;-75
2023/08/19 06:50:36;;;;;;;0.00;0.00;;;;;;;17.57;99.85;99885.44;4956611;28;20047;-75
2023/08/19 06:53:04;;;;;;;0.00;0.00;;;;;;;17.70;99.93;99886.41;4927063;29;20068;-74
2023/08/19 06:55:30;;;;;;;0.00;0.00;;;;;;;17.91;98.33;99897.59;4940884;28;20524;-75
2023/08/19 06:58:03;;;;;;;0.00;0.00;;;;;;;18.09;97.22;99893.66;4920850;28;20055;-74
2023/08/19 07:00:30;;;;;;;0.00;0.00;;;;;;;18.16;96.29;99893.16;4953383;28;20031;-75
2023/08/19 07:02:57;;;;;;;0.00;0.00;;;;;;;18.16;95.76;99893.16;4928110;29;20042;-75
2023/08/19 07:05:24;;;;;;;0.00;0.00;;;;;;;18.18;95.32;99917.72;4938585;28;20679;-75
2023/08/19 07:07:50;;;;;;;0.00;0.00;;;;;;;18.23;94.73;99915.59;4957960;28;20592;-75
2023/08/19 07:10:18;;;;;;;0.00;0.00;;;;;;;18.38;93.47;99911.47;4940720;28;20027;-76
2023/08/19 07:12:44;;;;;;;0.00;0.00;;;;;;;18.26;92.58;99898.31;4946578;28;20031;-75
2023/08/19 07:15:14;;;;;;;0.00;0.00;;;;;;;18.17;92.29;99905.03;4957561;28;20062;-75
2023/08/19 07:17:39;;;;;;;0.00;0.00;;;;;;;18.18;91.45;99917.72;4946772;28;20055;-75
2023/08/19 07:20:09;;;;;;;0.00;0.00;;;;;;;18.14;91.96;99917.56;4962329;28;20102;-76
2023/08/19 07:22:36;;;;;;;0.00;0.00;;;;;;;18.52;90.39;99938.16;4966613;28;20073;-75
2023/08/19 07:25:03;;;;;;;0.00;0.00;;;;;;;18.67;88.29;99932.03;4972935;28;20425;-74
2023/08/19 07:27:31;;;;;;;0.00;0.00;;;;;;;18.79;87.04;99947.94;4962966;28;20031;-76
2023/08/19 07:29:58;;;;;;;0.00;0.00;;;;;;;18.69;86.15;99940.84;4962793;28;20038;-75
2023/08/19 07:32:24;;;;;;;0.00;0.00;;;;;;;18.64;85.96;99952.09;4928797;28;20069;-73
2023/08/19 07:34:50;;;;;;;0.00;0.00;;;;;;;18.88;85.30;99950.69;4939604;28;20055;-79
2023/08/19 07:37:15;;;;;;;0.00;0.00;;;;;;;19.11;82.12;99965.09;4952137;28;20046;-75
2023/08/19 07:39:41;;;;;;;0.00;0.00;;;;;;;19.30;81.14;99973.78;4953682;28;20118;-74
2023/08/19 07:42:06;;;;;;;0.00;0.00;;;;;;;19.31;80.85;99969.84;4947740;28;20088;-73
2023/08/19 07:44:32;;;;;;;0.00;0.00;;;;;;;19.50;80.12;99969.41;4935941;28;20031;-75
2023/08/19 07:46:57;;;;;;;0.00;0.00;;;;;;;19.57;78.24;99979.16;4945511;28;20110;-75
2023/08/19 07:49:24;;;;;;;0.00;0.00;;;;;;;19.80;78.48;99979.63;4947502;28;20046;-73
2023/08/19 07:51:49;;;;;;;0.00;0.00;;;;;;;20.10;77.38;99982.31;4940437;28;20089;-73
2023/08/19 07:54:14;;;;;;;0.00;0.00;;;;;;;20.18;74.47;99973.09;4951150;28;20118;-74
2023/08/19 07:56:40;;;;;;;0.00;0.00;;;;;;;20.16;73.15;99983.72;4953811;28;20039;-74
2023/08/19 07:59:05;;;;;;;0.00;0.00;;;;;;;19.91;73.59;99986.41;4942721;28;20062;-75
2023/08/19 08:01:31;;;;;;;0.00;0.00;;;;;;;19.94;74.53;99996.81;4969218;28;20058;-75
2023/08/19 08:03:57;;;;;;;0.00;0.00;;;;;;;20.23;73.60;99997.88;4955194;28;20057;-74
2023/08/19 08:06:22;;;;;;;0.00;0.00;;;;;;;20.45;72.75;100007.75;4953519;28;20046;-74
2023/08/19 08:08:47;;;;;;;0.00;0.00;;;;;;;20.59;72.30;99999.13;4961394;28;20041;-75
2023/08/19 08:11:13;;;;;;;0.00;0.00;;;;;;;20.94;71.06;100009.84;4939890;28;20031;-74
2023/08/19 08:13:38;;;;;;;0.00;0.00;;;;;;;21.18;69.36;100017.38;4925209;28;20027;-74
2023/08/19 08:16:04;;;;;;;0.00;0.00;;;;;;;21.39;69.44;100020.03;4927201;28;20450;-74
2023/08/19 08:18:29;;;;;;;0.00;0.00;;;;;;;21.52;67.76;100022.84;4953485;28;20039;-74
2023/08/19 08:20:55;;;;;;;0.00;0.00;;;;;;;21.36;66.29;100025.47;4939208;28;20500;-74
2023/08/19 08:23:20;;;;;;;0.00;0.00;;;;;;;21.11;66.82;100025.47;4947225;29;20039;-74
2023/08/19 08:25:46;;;;;;;0.00;0.00;;;;;;;20.92;68.28;100029.66;4931451;28;20504;-75
2023/08/19 08:28:11;;;;;;;0.00;0.00;;;;;;;20.89;68.86;100027.53;4970735;28;20034;-75
2023/08/19 08:30:37;;;;;;;0.00;0.00;;;;;;;21.05;67.98;100065.78;4936355;28;20381;-74
2023/08/19 08:33:03;;;;;;;0.00;0.00;;;;;;;21.20;68.55;100050.41;4953057;28;20390;-74
2023/08/19 08:35:28;;;;;;;0.00;0.00;;;;;;;21.21;67.97;100043.69;4969441;28;20478;-74
2023/08/19 08:37:53;;;;;;;0.00;0.00;;;;;;;21.14;68.45;100043.44;4954420;28;20027;-74
2023/08/19 08:40:19;;;;;;;0.00;0.00;;;;;;;20.96;67.47;100059.53;4968442;28;20392;-74
2023/08/19 08:42:46;;;;;;;0.00;0.00;;;;;;;20.66;66.56;100054.09;4965873;28;20036;-74
2023/08/19 08:45:12;;;;;;;0.00;0.00;;;;;;;20.39;67.74;100057.16;4963881;28;20063;-75
2023/08/19 08:47:40;;;;;;;0.00;0.00;;;;;;;20.17;67.96;100076.97;4971162;28;20054;-74
2023/08/19 08:50:06;;;;;;;0.00;0.00;;;;;;;19.86;68.53;100059.56;4950015;28;20019;-75
2023/08/19 08:52:32;;;;;;;0.00;0.00;;;;;;;19.71;69.00;100060.94;4954208;28;20046;-75
2023/08/19 08:55:00;;;;;;;0.00;0.00;;;;;;;19.94;68.49;100074.50;4924647;28;20046;-75
2023/08/19 08:57:25;;;;;;;0.00;0.00;;;;;;;20.33;67.78;100080.72;4938178;28;20023;-75
2023/08/19 08:59:52;;;;;;;0.00;0.00;;;;;;;20.64;65.52;100073.09;4946429;29;20054;-74
2023/08/19 09:02:19;;;;;;;0.00;0.00;;;;;;;21.24;64.07;100093.03;4945714;28;20035;-74
2023/08/19 09:04:46;;;;;;;0.00;0.00;;;;;;;21.33;62.86;100082.59;4951374;28;20682;-73
2023/08/19 09:07:25;;;;;;;0.00;0.00;;;;;;;21.17;63.78;100070.56;4954040;28;20022;-76
2023/08/19 09:09:52;;;;;;;0.00;0.00;;;;;;;21.22;63.34;100087.81;4954033;28;20117;-74
2023/08/19 09:12:20;;;;;;;0.00;0.00;;;;;;;20.94;63.71;100093.25;4953459;28;20030;-75
2023/08/19 09:14:51;;;;;;;0.00;0.00;;;;;;;20.79;65.23;100103.03;4970864;28;20076;-75
2023/08/19 09:17:16;;;;;;;0.00;0.00;;;;;;;20.77;65.67;100102.56;4969908;28;20047;-74
2023/08/19 09:19:42;;;;;;;0.00;0.00;;;;;;;20.84;62.14;100121.47;4966568;28;20046;-74
2023/08/19 09:22:20;;;;;;;0.00;0.00;;;;;;;21.95;59.31;100129.91;4965776;28;20370;-76
2023/08/19 09:24:46;;;;;;;0.00;0.00;;;;;;;22.73;57.10;100119.44;4948513;28;20042;-76
2023/08/19 09:27:11;;;;;;;0.00;0.00;;;;;;;25.79;49.97;100136.44;4933225;29;20110;-74
2023/08/19 09:29:37;;;;;;;0.00;0.00;;;;;;;28.67;42.12;100139.22;4952114;28;20554;-74
2023/08/19 09:32:03;;;;;;;0.00;0.00;;;;;;;29.11;40.74;100140.13;4942852;28;20113;-75
2023/08/19 09:34:28;;;;;;;0.00;0.00;;;;;;;30.01;37.92;100136.50;4974540;28;20023;-74
2023/08/19 09:36:57;;;;;;;0.00;0.00;;;;;;;30.69;36.36;100139.06;4956374;28;20039;-75
2023/08/19 09:39:25;;;;;;;0.00;0.00;;;;;;;29.90;37.92;100150.63;4955350;28;20118;-73
2023/08/19 09:42:00;;;;;;;0.00;0.00;;;;;;;32.05;33.87;100150.56;4975155;28;20102;-73
2023/08/19 09:44:30;;;;;;;0.00;0.00;;;;;;;33.90;30.52;100161.72;4972073;28;20477;-74
2023/08/19 09:46:56;;;;;;;0.00;0.00;;;;;;;32.01;32.59;100161.13;4956655;28;20045;-74
2023/08/19 09:49:23;;;;;;;0.00;0.00;;;;;;;29.21;37.08;100127.25;4974524;28;20065;-74
2023/08/19 09:51:55;;;;;;;0.00;0.00;;;;;;;26.89;41.82;100155.13;4965310;28;20030;-74
2023/08/19 09:54:22;;;;;;;0.00;0.00;;;;;;;25.18;45.54;100153.00;4939257;28;20042;-74
2023/08/19 09:56:55;;;;;;;0.00;0.00;;;;;;;24.06;49.34;100144.31;4958374;28;20522;-72
2023/08/19 09:59:25;;;;;;;0.00;0.00;;;;;;;23.35;51.26;100166.53;4972927;28;20026;-74
2023/08/19 10:01:52;;;;;;;0.00;0.00;;;;;;;22.70;53.01;100170.34;4973518;28;20065;-74
2023/08/19 10:04:20;;;;;;;0.00;0.00;;;;;;;22.17;55.00;100163.97;4959301;28;20627;-73
2023/08/19 10:06:48;;;;;;;0.00;0.00;;;;;;;21.91;56.31;100162.38;4952771;28;20027;-74
2023/08/19 10:09:19;;;;;;;0.00;0.00;;;;;;;21.76;57.49;100159.13;4973812;28;20090;-74
2023/08/19 10:11:48;;;;;;;0.00;0.00;;;;;;;21.90;58.22;100172.72;4960084;28;20585;-76
2023/08/19 10:14:15;;;;;;;0.00;0.00;;;;;;;22.53;56.96;100168.69;4938210;28;20034;-74
2023/08/19 10:16:44;;;;;;;0.00;0.00;;;;;;;23.80;54.57;100170.03;4950316;28;20047;-74
2023/08/19 10:19:16;;;;;;;0.00;0.00;;;;;;;24.37;52.27;100176.13;4949556;28;20082;-74
2023/08/19 10:21:45;;;;;;;0.00;0.00;;;;;;;24.38;51.74;100186.13;4942294;28;20538;-74
2023/08/19 10:24:11;;;;;;;0.00;0.00;;;;;;;23.77;51.84;100177.16;4952550;28;20122;-72
2023/08/19 10:26:38;;;;;;;0.00;0.00;;;;;;;23.11;53.64;100173.88;4944459;29;20058;-75
2023/08/19 10:29:08;;;;;;;0.00;0.00;;;;;;;23.15;54.96;100183.16;4933132;28;20031;-74
2023/08/19 10:31:35;;;;;;;0.00;0.00;;;;;;;23.11;54.78;100179.47;4954464;28;20114;-75
2023/08/19 10:34:11;;;;;;;0.00;0.00;;;;;;;22.94;55.34;100185.31;4951031;28;20023;-74
2023/08/19 10:36:36;;;;;;;0.00;0.00;;;;;;;22.58;55.54;100195.47;4952139;28;20083;-73
2023/08/19 10:39:03;;;;;;;0.00;0.00;;;;;;;22.38;56.85;100186.13;4942452;28;20038;-75
2023/08/19 10:41:30;;;;;;;0.00;0.00;;;;;;;22.65;57.25;100190.09;4952018;28;20019;-72
2023/08/19 10:44:05;;;;;;;0.00;0.00;;;;;;;23.11;57.11;100201.75;4944633;28;20326;-74
2023/08/19 10:46:39;;;;;;;0.00;0.00;;;;;;;24.04;55.43;100202.53;4954263;28;20517;-74
2023/08/19 10:49:22;;;;;;;0.00;0.00;;;;;;;24.60;52.17;100200.59;4955993;28;20034;-74
2023/08/19 10:52:03;;;;;;;0.00;0.00;;;;;;;24.45;51.13;100227.41;4948373;28;20063;-75
2023/08/19 10:54:43;;;;;;;0.00;0.00;;;;;;;24.50;52.17;100233.53;4951389;28;20069;-74
2023/08/19 10:57:18;;;;;;;0.00;0.00;;;;;;;25.05;50.51;100219.50;4955438;28;20118;-74
2023/08/19 10:59:45;;;;;;;0.00;0.00;;;;;;;25.25;46.97;100217.47;4974211;28;20022;-73
2023/08/19 11:02:12;;;;;;;0.00;0.00;;;;;;;25.09;48.00;100222.38;4956219;28;20158;-73
2023/08/19 11:04:43;;;;;;;0.00;0.00;;;;;;;25.33;46.67;100245.63;4971823;28;20488;-73
2023/08/19 11:07:10;;;;;;;0.00;0.00;;;;;;;25.50;47.42;100214.38;4973902;28;20031;-75
2023/08/19 11:09:35;;;;;;;0.00;0.00;;;;;;;26.13;45.43;100226.22;4939111;28;20063;-78
2023/08/19 11:12:02;;;;;;;0.00;0.00;;;;;;;26.17;45.11;100238.28;4973500;28;20062;-75
2023/08/19 11:14:28;;;;;;;0.00;0.00;;;;;;;26.27;44.91;100229.22;4958473;28;20035;-75
2023/08/19 11:16:56;;;;;;;0.00;0.00;;;;;;;26.36;45.65;100240.16;4948697;28;20062;-73
2023/08/19 11:19:22;;;;;;;0.00;0.00;;;;;;;25.78;45.56;100238.44;4964791;28;20502;-78
2023/08/19 11:21:49;;;;;;;0.00;0.00;;;;;;;26.02;44.68;100244.84;4963819;28;20062;-74
2023/08/19 11:24:15;;;;;;;0.00;0.00;;;;;;;25.17;47.03;100246.50;4954285;28;20034;-74
2023/08/19 11:26:45;;;;;;;0.00;0.00;;;;;;;24.95;47.96;100241.66;4964112;28;20023;-75
2023/08/19 11:29:11;;;;;;;0.00;0.00;;;;;;;25.74;47.24;100254.34;4967122;28;20018;-74
2023/08/19 11:31:38;;;;;;;0.00;0.00;;;;;;;26.52;45.51;100251.22;4972504;28;20513;-73